createdAt,value
2023-04-10T00:01:15.638Z,7.4
2023-04-10T00:03:19.652Z,7.4
2023-04-10T00:05:23.376Z,7.4
2023-04-10T00:07:30.419Z,7.4
2023-04-10T00:09:34.262Z,7.3
2023-04-10T00:11:38.103Z,7.3
2023-04-10T00:13:41.925Z,7.2
2023-04-10T00:15:45.742Z,7.2
2023-04-10T00:17:49.639Z,7.1
2023-04-10T00:19:53.434Z,7.1
2023-04-10T00:22:00.521Z,7.1
2023-04-10T00:24:04.348Z,7
2023-04-10T00:26:08.205Z,7
2023-04-10T00:30:15.860Z,7
2023-04-10T00:34:23.537Z,6.8
2023-04-10T00:40:38.298Z,6.7
2023-04-10T00:44:45.933Z,6.7
2023-04-10T00:46:49.785Z,6.6
2023-04-10T00:48:53.625Z,6.6
2023-04-10T00:51:00.709Z,6.6
2023-04-10T00:53:04.563Z,6.6
2023-04-10T00:55:08.347Z,6.6
2023-04-10T00:56:11.917Z,6.6
2023-04-10T00:58:15.724Z,6.6
2023-04-10T01:00:19.653Z,6.6
2023-04-10T01:02:23.577Z,6.6
2023-04-10T01:08:38.133Z,6.7
2023-04-10T01:10:41.965Z,6.7
2023-04-10T01:12:45.776Z,6.7
2023-04-10T01:19:00.500Z,6.7
2023-04-10T01:27:15.781Z,6.7
2023-04-10T01:29:19.612Z,6.7
2023-04-10T01:31:23.553Z,6.7
2023-04-10T01:33:30.519Z,6.7
2023-04-10T01:35:34.389Z,6.7
2023-04-10T01:37:38.181Z,6.6
2023-04-10T01:39:41.986Z,6.6
2023-04-10T01:41:45.821Z,6.6
2023-04-10T01:43:49.617Z,6.6
2023-04-10T01:45:53.489Z,6.6
2023-04-10T01:48:00.552Z,6.6
2023-04-10T01:50:04.364Z,6.6
2023-04-10T01:53:11.711Z,6.6
2023-04-10T01:57:19.343Z,6.6
2023-04-10T01:59:23.159Z,6.6
2023-04-10T02:01:30.701Z,6.6
2023-04-10T02:03:34.399Z,6.6
2023-04-10T02:05:37.904Z,6.6
2023-04-10T02:09:45.533Z,6.6
2023-04-10T02:11:49.395Z,6.6
2023-04-10T02:13:53.276Z,6.6
2023-04-10T02:30:30.325Z,6.6
2023-04-10T02:32:34.144Z,6.5
2023-04-10T02:34:37.962Z,6.5
2023-04-10T02:36:41.780Z,6.6
2023-04-10T02:38:45.566Z,6.6
2023-04-10T02:42:53.242Z,6.6
2023-04-10T02:49:07.991Z,6.7
2023-04-10T02:50:11.535Z,6.6
2023-04-10T02:52:15.356Z,6.7
2023-04-10T02:54:19.182Z,6.6
2023-04-10T02:56:23.012Z,6.6
2023-04-10T02:58:30.099Z,6.6
2023-04-10T03:00:33.930Z,6.6
2023-04-10T03:04:41.593Z,6.5
2023-04-10T03:06:45.400Z,6.5
2023-04-10T03:08:49.188Z,6.5
2023-04-10T03:13:00.124Z,6.4
2023-04-10T03:17:07.767Z,6.4
2023-04-10T03:19:12.828Z,6.4
2023-04-10T03:21:15.437Z,6.4
2023-04-10T03:23:19.199Z,6.4
2023-04-10T03:25:23.009Z,6.4
2023-04-10T03:27:30.150Z,6.4
2023-04-10T03:29:33.932Z,6.3
2023-04-10T03:31:37.877Z,6.4
2023-04-10T03:33:41.640Z,6.3
2023-04-10T03:35:45.441Z,6.3
2023-04-10T03:37:49.210Z,6.2
2023-04-10T03:39:53.030Z,6.2
2023-04-10T03:42:00.114Z,6.2
2023-04-10T03:44:03.928Z,6.1
2023-04-10T03:46:07.766Z,6.1
2023-04-10T03:50:36.226Z,6
2023-04-10T03:56:50.966Z,6
2023-04-10T04:05:06.348Z,6
2023-04-10T04:11:20.922Z,5.9
2023-04-10T04:17:32.379Z,5.9
2023-04-10T04:19:36.192Z,5.9
2023-04-10T04:23:47.080Z,5.9
2023-04-10T04:25:50.896Z,5.9
2023-04-10T04:27:54.736Z,5.9
2023-04-10T04:29:58.517Z,5.9
2023-04-10T04:32:02.352Z,5.9
2023-04-10T04:34:06.132Z,5.9
2023-04-10T04:36:10.058Z,5.9
2023-04-10T04:40:20.843Z,5.9
2023-04-10T04:42:24.655Z,5.9
2023-04-10T04:43:28.192Z,5.9
2023-04-10T04:51:46.754Z,5.9
2023-04-10T04:53:50.518Z,5.9
2023-04-10T04:55:54.312Z,5.9
2023-04-10T04:57:58.159Z,5.9
2023-04-10T05:00:01.960Z,5.9
2023-04-10T05:02:05.886Z,5.9
2023-04-10T05:04:09.786Z,5.9
2023-04-10T05:06:16.601Z,5.9
2023-04-10T05:08:20.422Z,5.9
2023-04-10T05:10:24.228Z,6
2023-04-10T05:12:28.055Z,6
2023-04-10T05:14:31.849Z,6.1
2023-04-10T05:20:46.514Z,6.3
2023-04-10T05:24:54.141Z,6.4
2023-04-10T05:26:57.955Z,6.4
2023-04-10T05:29:01.789Z,6.4
2023-04-10T05:33:09.379Z,6.6
2023-04-10T05:35:16.456Z,6.7
2023-04-10T05:37:20.272Z,6.7
2023-04-10T05:40:27.614Z,6.9
2023-04-10T05:44:35.243Z,7
2023-04-10T05:48:47.755Z,7.4
2023-04-10T05:50:51.559Z,7.4
2023-04-10T05:52:55.410Z,7.4
2023-04-10T05:54:59.179Z,7.4
2023-04-10T05:57:03.090Z,7.5
2023-04-10T06:03:17.765Z,7.9
2023-04-10T06:05:21.603Z,8
2023-04-10T06:09:29.180Z,8.2
2023-04-10T06:13:36.837Z,8.5
2023-04-10T06:21:55.428Z,8.9
2023-04-10T06:23:59.254Z,9.3
2023-04-10T06:26:03.100Z,9.6
2023-04-10T06:28:06.925Z,9.9
2023-04-10T06:30:10.897Z,10.1
2023-04-10T06:32:17.884Z,9.8
2023-04-10T06:34:21.689Z,9.6
2023-04-10T06:37:29.126Z,9.2
2023-04-10T06:39:32.961Z,9.3
2023-04-10T06:51:59.267Z,10.3
2023-04-10T06:58:10.819Z,11
2023-04-10T07:02:21.935Z,11.3
2023-04-10T07:04:25.625Z,12.8
2023-04-10T07:06:29.509Z,13.1
2023-04-10T07:10:37.294Z,12.2
2023-04-10T07:12:41.078Z,12.3
2023-04-10T07:14:48.195Z,12.5
2023-04-10T07:23:03.665Z,12
2023-04-10T07:25:07.520Z,12.1
2023-04-10T07:27:11.364Z,12.2
2023-04-10T07:29:18.493Z,12.5
2023-04-10T07:31:22.458Z,12.4
2023-04-10T07:33:26.230Z,12.7
2023-04-10T07:44:09.806Z,12.4
2023-04-10T07:50:21.402Z,12.3
2023-04-10T07:54:29.103Z,12
2023-04-10T08:04:52.003Z,12.8
2023-04-10T08:06:55.595Z,12.9
2023-04-10T08:08:59.449Z,12.5
2023-04-10T08:11:06.610Z,13.1
2023-04-10T08:13:10.453Z,13.3
2023-04-10T08:15:14.276Z,13.9
2023-04-10T08:17:18.164Z,14.4
2023-04-10T08:19:22.055Z,15.3
2023-04-10T08:23:29.783Z,17.1
2023-04-10T08:25:36.895Z,17.7
2023-04-10T08:27:40.746Z,17.8
2023-04-10T08:29:44.613Z,17.7
2023-04-10T08:30:48.254Z,17
2023-04-10T08:36:59.781Z,16.5
2023-04-10T08:39:06.886Z,15.7
2023-04-10T08:41:10.770Z,15.5
2023-04-10T08:47:22.419Z,14.5
2023-04-10T08:49:26.193Z,14.6
2023-04-10T08:51:30.032Z,15
2023-04-10T08:55:40.985Z,14.9
2023-04-10T08:57:50.888Z,14.6
2023-04-10T08:59:48.683Z,14.8
2023-04-10T09:03:57.066Z,14.5
2023-04-10T09:08:07.393Z,14.8
2023-04-10T09:12:15.133Z,14.6
2023-04-10T09:16:22.912Z,14.9
2023-04-10T09:27:48.975Z,14.5
2023-04-10T09:29:52.833Z,14.6
2023-04-10T09:31:56.704Z,14.3
2023-04-10T09:34:00.556Z,14.1
2023-04-10T09:36:07.780Z,14.5
2023-04-10T09:38:11.537Z,14.5
2023-04-10T09:40:15.408Z,14.4
2023-04-10T09:42:19.293Z,14.4
2023-04-10T09:44:23.094Z,14.4
2023-04-10T09:46:27.044Z,14.5
2023-04-10T09:48:30.851Z,14.6
2023-04-10T09:50:39.931Z,14.5
2023-04-10T09:52:41.803Z,14.4
2023-04-10T09:54:45.655Z,14.3
2023-04-10T09:56:49.514Z,14.3
2023-04-10T09:58:53.688Z,14.3
2023-04-10T10:00:57.194Z,14.4
2023-04-10T10:09:15.860Z,14.3
2023-04-10T10:24:49.661Z,14.3
2023-04-10T10:33:08.345Z,14.7
2023-04-10T10:37:16.051Z,15.1
2023-04-10T10:39:19.904Z,15.1
2023-04-10T10:47:38.623Z,14.9
2023-04-10T10:55:54.011Z,14.9
2023-04-10T11:12:28.085Z,15.1
2023-04-10T11:14:31.941Z,15.1
2023-04-10T11:16:39.159Z,14.9
2023-04-10T11:20:46.744Z,15.1
2023-04-10T11:25:09.539Z,15.4
2023-04-10T11:27:13.413Z,15.5
2023-04-10T11:33:28.222Z,15.9
2023-04-10T11:39:39.783Z,15.9
2023-04-10T11:50:03.844Z,16.6
2023-04-10T11:52:07.687Z,16.7
2023-04-10T12:04:34.125Z,17.4
2023-04-10T12:06:38.107Z,17.3
2023-04-10T12:10:45.461Z,17.3
2023-04-10T12:12:52.625Z,16.8
2023-04-10T12:14:56.396Z,16.9
2023-04-10T12:17:00.274Z,17.1
2023-04-10T12:18:03.848Z,17.1
2023-04-10T12:28:26.250Z,17.3
2023-04-10T12:30:30.090Z,17.3
2023-04-10T12:32:33.984Z,17.4
2023-04-10T12:34:37.734Z,17.4
2023-04-10T12:36:41.556Z,17.4
2023-04-10T12:40:52.472Z,17.6
2023-04-10T12:42:56.324Z,17.5
2023-04-10T12:47:03.980Z,17.6
2023-04-10T12:55:22.556Z,17.2
2023-04-10T12:57:26.400Z,17.2
2023-04-10T12:59:30.208Z,17.2
2023-04-10T13:01:34.080Z,17.2
2023-04-10T13:03:38.026Z,17.2
2023-04-10T13:05:41.688Z,17.4
2023-04-10T13:09:52.643Z,17.6
2023-04-10T13:11:56.446Z,17.5
2023-04-10T13:14:00.298Z,17.3
2023-04-10T13:19:11.523Z,17
2023-04-10T13:23:22.445Z,17
2023-04-10T13:25:26.283Z,17.1
2023-04-10T13:27:30.115Z,17
2023-04-10T13:29:34.018Z,16.9
2023-04-10T13:31:37.865Z,16.7
2023-04-10T13:33:41.622Z,16.7
2023-04-10T13:35:45.473Z,16.6
2023-04-10T13:39:56.364Z,16.4
2023-04-10T13:48:11.750Z,16.3
2023-04-10T13:54:26.547Z,16.2
2023-04-10T14:00:38.043Z,16.1
2023-04-10T14:02:41.935Z,16.1
2023-04-10T14:12:04.072Z,16
2023-04-10T14:14:07.960Z,16
2023-04-10T14:18:15.605Z,15.9
2023-04-10T14:22:26.540Z,15.7
2023-04-10T14:24:30.402Z,15.7
2023-04-10T14:28:38.102Z,15.6
2023-04-10T14:30:41.921Z,15.7
2023-04-10T14:32:45.860Z,15.8
2023-04-10T14:34:53.074Z,16
2023-04-10T14:36:56.735Z,16
2023-04-10T14:39:00.629Z,16
2023-04-10T14:41:04.492Z,16
2023-04-10T14:43:08.287Z,16
2023-04-10T14:45:12.125Z,16.1
2023-04-10T14:47:15.977Z,16.1
2023-04-10T14:53:30.798Z,16.2
2023-04-10T14:57:38.462Z,16.4
2023-04-10T14:59:42.347Z,16.5
2023-04-10T15:01:46.302Z,16.5
2023-04-10T15:03:53.725Z,16.6
2023-04-10T15:05:57.141Z,16.6
2023-04-10T15:08:00.977Z,16.5
2023-04-10T15:10:25.602Z,16.5
2023-04-10T15:12:29.443Z,16.5
2023-04-10T15:14:33.273Z,16.3
2023-04-10T15:20:48.074Z,15.7
2023-04-10T15:24:55.765Z,15.3
2023-04-10T15:26:59.603Z,15.1
2023-04-10T15:29:03.482Z,14.8
2023-04-10T15:35:18.264Z,13.9
2023-04-10T15:37:22.165Z,13.7
2023-04-10T15:43:33.695Z,13.3
2023-04-10T15:45:40.823Z,13.2
2023-04-10T16:00:11.171Z,12.6
2023-04-10T16:02:15.112Z,12.6
2023-04-10T16:04:19.038Z,12.5
2023-04-10T16:05:22.471Z,12.4
2023-04-10T16:09:30.204Z,12.4
2023-04-10T16:11:34.067Z,12.4
2023-04-10T16:13:44.346Z,12.3
2023-04-10T16:15:45.157Z,12.2
2023-04-10T16:17:49.051Z,12.2
2023-04-10T16:19:52.827Z,12.1
2023-04-10T16:21:56.712Z,12.1
2023-04-10T16:24:00.584Z,12.1
2023-04-10T16:28:11.590Z,12.1
2023-04-10T16:30:15.434Z,12.1
2023-04-10T16:32:19.334Z,12.1
2023-04-10T16:34:23.121Z,12.1
2023-04-10T16:36:27.045Z,12.1
2023-04-10T16:38:30.867Z,12.1
2023-04-10T16:40:34.762Z,12.2
2023-04-10T16:42:41.892Z,12.2
2023-04-10T16:44:45.755Z,12.2
2023-04-10T16:46:49.701Z,12.1
2023-04-10T16:48:53.960Z,12.1
2023-04-10T16:50:57.355Z,12.1
2023-04-10T16:55:05.103Z,12.1
2023-04-10T16:57:12.219Z,12.1
2023-04-10T17:01:19.998Z,12.1
2023-04-10T17:02:23.647Z,12.1
2023-04-10T17:14:49.995Z,11.9
2023-04-10T17:18:57.854Z,11.9
2023-04-10T17:21:01.586Z,11.8
2023-04-10T17:29:20.264Z,11.4
2023-04-10T17:39:42.821Z,10.9
2023-04-10T17:48:00.133Z,10.8
2023-04-10T17:50:03.732Z,10.8
2023-04-10T17:52:07.614Z,10.8
2023-04-10T17:54:14.706Z,10.8
2023-04-10T17:59:25.982Z,10.9
2023-04-10T18:01:29.959Z,10.9
2023-04-10T18:05:37.579Z,10.9
2023-04-10T18:07:44.715Z,10.9
2023-04-10T18:09:48.545Z,10.9
2023-04-10T18:11:52.430Z,10.9
2023-04-10T18:13:56.962Z,10.9
2023-04-10T18:16:00.810Z,10.9
2023-04-10T18:18:04.722Z,10.9
2023-04-10T18:20:08.546Z,10.9
2023-04-10T18:22:15.663Z,10.9
2023-04-10T18:24:19.532Z,10.9
2023-04-10T18:26:23.419Z,10.9
2023-04-10T18:28:27.248Z,10.9
2023-04-10T18:34:38.824Z,10.9
2023-04-10T18:38:49.819Z,10.8
2023-04-10T18:40:53.661Z,10.9
2023-04-10T18:42:57.536Z,10.8
2023-04-10T18:45:01.486Z,10.8
2023-04-10T18:47:05.545Z,10.8
2023-04-10T18:49:09.155Z,10.8
2023-04-10T18:57:48.414Z,10.8
2023-04-10T18:59:52.262Z,10.8
2023-04-10T19:01:56.232Z,10.7
2023-04-10T19:04:03.359Z,10.8
2023-04-10T19:12:18.695Z,10.7
2023-04-10T19:14:22.552Z,10.7
2023-04-10T19:18:33.568Z,10.7
2023-04-10T19:20:49.912Z,10.7
2023-04-10T19:24:45.139Z,10.7
2023-04-10T19:35:07.700Z,10.8
2023-04-10T19:37:11.538Z,10.8
2023-04-10T19:39:15.378Z,10.8
2023-04-10T19:43:23.122Z,10.9
2023-04-10T19:45:26.983Z,10.8
2023-04-10T19:47:34.118Z,10.8
2023-04-10T19:49:37.966Z,10.8
2023-04-10T19:51:41.824Z,10.7
2023-04-10T19:52:45.388Z,10.8
2023-04-10T19:54:49.247Z,10.7
2023-04-10T20:03:08.196Z,10.7
2023-04-10T20:05:11.950Z,10.7
2023-04-10T20:15:34.380Z,10.8
2023-04-10T20:17:38.219Z,10.8
2023-04-10T20:19:42.056Z,10.8
2023-04-10T20:21:45.902Z,10.8
2023-04-10T20:23:49.776Z,10.8
2023-04-10T20:25:54.347Z,10.8
2023-04-10T20:30:04.638Z,10.8
2023-04-10T20:34:12.333Z,10.7
2023-04-10T20:36:16.235Z,10.7
2023-04-10T20:49:46.201Z,10.7
2023-04-10T20:51:50.053Z,10.7
2023-04-10T20:53:53.915Z,10.7
2023-04-10T20:55:57.772Z,10.7
2023-04-10T20:58:04.862Z,10.7
2023-04-10T21:00:08.729Z,10.7
2023-04-10T21:02:12.783Z,10.7
2023-04-10T21:04:16.504Z,10.7
2023-04-10T21:06:20.305Z,10.8
2023-04-10T21:08:24.182Z,10.8
2023-04-10T21:10:28.004Z,10.8
2023-04-10T21:12:35.155Z,10.7
2023-04-10T21:14:39.007Z,10.7
2023-04-10T21:16:42.937Z,10.7
2023-04-10T21:18:46.673Z,10.7
2023-04-10T21:20:50.561Z,10.6
2023-04-10T21:24:58.275Z,10.6
2023-04-10T21:27:05.378Z,10.6
2023-04-10T21:35:20.792Z,10.6
2023-04-10T21:39:28.497Z,10.6
2023-04-10T21:41:35.619Z,10.6
2023-04-10T21:48:50.734Z,10.7
2023-04-10T21:50:54.581Z,10.7
2023-04-10T21:52:58.440Z,10.7
2023-04-10T21:55:06.337Z,10.7
2023-04-10T21:57:09.410Z,10.7
2023-04-10T22:09:35.828Z,10.5
2023-04-10T22:15:47.387Z,10.4
2023-04-10T22:19:55.149Z,10.4
2023-04-10T22:21:58.958Z,10.4
2023-04-10T22:24:06.064Z,10.5
2023-04-10T22:28:13.770Z,10.5
2023-04-10T22:34:25.323Z,10.4
2023-04-10T22:45:02.636Z,10.5
2023-04-10T22:47:06.473Z,10.5
2023-04-10T22:49:10.342Z,10.5
2023-04-10T22:53:21.333Z,10.6
2023-04-10T22:55:25.157Z,10.6
2023-04-10T22:57:29.021Z,10.6
2023-04-10T22:59:32.885Z,10.6
2023-04-10T23:01:36.792Z,10.6
2023-04-10T23:05:47.731Z,10.2
2023-04-10T23:07:51.570Z,9.1
2023-04-10T23:09:55.803Z,7.3
2023-04-10T23:11:59.302Z,7
2023-04-10T23:14:03.175Z,7.1
2023-04-10T23:22:21.831Z,7.7
2023-04-10T23:24:25.676Z,7.7
2023-04-10T23:34:48.204Z,7.6
2023-04-10T23:40:01.101Z,7.4
2023-04-10T23:42:04.904Z,7.4
2023-04-10T23:44:08.749Z,7.4
2023-04-10T23:48:19.716Z,7.3
2023-04-10T23:50:23.520Z,7.3
2023-04-10T23:52:27.354Z,7.4
2023-04-10T23:58:38.864Z,7.3
